KCEC/CEC METAR and TAF weather

Enter ICAO airport designator
Station Type Date Time Source
KCEC METAR 2019/12/11 16:56 UTC NOAA

KCEC 111656Z AUTO 16010KT 10SM OVC100 12/07 A3011 RMK AO2 SLP196 T01170072


Station Type Date Time Source
KCEC Decoded METAR 2019/12/11 16:56 UTC NOAA

CRESCENT CITY MC NAMARA, CA, United States (KCEC) 41-47N 124-14W
Dec 11, 2019 - 11:56 AM EST / 2019.12.11 1656 UTC
Wind: from the SSE (160 degrees) at 12 MPH (10 KT):0
Visibility: 10 mile(s):0
Sky conditions: overcast
Temperature: 53.1 F (11.7 C)
Dew Point: 45.0 F (7.2 C)
Relative Humidity: 73%
Pressure (altimeter): 30.11 in. Hg (1019 hPa)
ob: KCEC 111656Z AUTO 16010KT 10SM OVC100 12/07 A3011 RMK AO2 SLP196 T01170072
cycle: 17

Station Type Date Time Source
KCEC TAF 2019/12/11 18:36 UTC NOAA

TAF KCEC 111734Z 1118/1218 16010KT P6SM SCT030 OVC050
FM112200 17015G25KT 6SM -RA BR BKN025 OVC035
FM120200 17013KT 4SM RA BR OVC015
FM121200 17008KT 6SM -SHRA SCT015 OVC025

Example: see airport list